Time;durP1;ratioP1;P1;durP2;ratioP2;P2;SDS_P1;SDS_P2;PMS_P1;PMS_P2;Temp;Humidity;BMP_temperature;BMP_pressure;BME280_temperature;BME280_humidity;BME280_pressure;Samples;Min_cycle;Max_cycle;Signal;HPM_P1;HPM_P2
2022/11/16 00:00:37;;;;;;;3.45;2.70;;;;;;;20.08;54.39;95986.78;10553904;28;20051;-48
2022/11/16 00:05:57;;;;;;;3.75;2.58;;;;;;;20.05;54.29;95992.09;10524985;28;20040;-45
2022/11/16 00:11:17;;;;;;;3.17;2.50;;;;;;;20.04;54.29;95980.50;10505530;28;20048;-44
2022/11/16 00:16:37;;;;;;;3.33;2.67;;;;;;;20.04;54.23;95974.31;10548060;28;20557;-48
2022/11/16 00:21:57;;;;;;;3.20;2.78;;;;;;;20.01;54.26;95978.47;10527846;28;20052;-48
2022/11/16 00:27:16;;;;;;;2.80;2.50;;;;;;;20.02;54.25;95973.88;10522434;28;20059;-46
2022/11/16 00:32:35;;;;;;;4.90;2.70;;;;;;;20.00;54.20;95963.41;10506795;28;20412;-46
2022/11/16 00:37:55;;;;;;;3.22;2.58;;;;;;;19.99;54.28;95963.75;10447164;28;20049;-45
2022/11/16 00:43:14;;;;;;;2.75;2.55;;;;;;;19.97;54.18;95957.91;10468809;28;20053;-48
2022/11/16 00:48:34;;;;;;;3.13;2.65;;;;;;;19.96;54.42;95949.03;10480865;28;20044;-44
2022/11/16 00:53:54;;;;;;;2.97;2.55;;;;;;;19.95;54.33;95939.31;10494855;28;20036;-45
2022/11/16 00:59:14;;;;;;;3.22;2.60;;;;;;;19.94;54.22;95943.19;10470422;28;20047;-47
2022/11/16 01:04:34;;;;;;;2.70;2.40;;;;;;;19.92;54.19;95934.63;10439155;28;20053;-46
2022/11/16 01:09:54;;;;;;;2.78;2.33;;;;;;;19.91;54.27;95933.81;10473709;28;20044;-46
2022/11/16 01:15:14;;;;;;;2.53;2.25;;;;;;;19.89;54.27;95930.69;10487343;28;20044;-47
2022/11/16 01:20:33;;;;;;;4.22;2.45;;;;;;;19.87;54.24;95916.72;10439166;28;20052;-46
2022/11/16 01:26:01;;;;;;;2.65;2.40;;;;;;;19.86;54.18;95904.38;10493396;28;20049;-47
2022/11/16 01:31:22;;;;;;;2.45;2.25;;;;;;;19.86;54.24;95903.59;10458656;28;20389;-47
2022/11/16 01:36:44;;;;;;;2.50;2.30;;;;;;;19.85;54.23;95902.00;10501536;28;20067;-46
2022/11/16 01:42:04;;;;;;;3.25;2.63;;;;;;;19.83;54.20;95902.34;10539276;28;20075;-44
2022/11/16 01:47:24;;;;;;;2.60;2.33;;;;;;;19.83;54.16;95890.75;10501762;28;20408;-44
2022/11/16 01:52:52;;;;;;;2.67;2.08;;;;;;;19.79;54.14;95882.56;10526280;28;20514;-45
2022/11/16 01:58:17;;;;;;;2.47;2.10;;;;;;;19.79;54.18;95876.38;10505996;28;20056;-46
2022/11/16 02:03:39;;;;;;;2.42;2.10;;;;;;;19.79;54.10;95873.66;10474353;28;20059;-47
2022/11/16 02:15:24;;;;;;;2.85;2.30;;;;;;;19.75;54.09;95865.47;10511504;28;20078;-47
2022/11/16 02:21:05;;;;;;;3.38;2.40;;;;;;;19.72;54.10;95850.75;10511572;28;20200;-47
2022/11/16 02:26:43;;;;;;;2.30;2.08;;;;;;;19.71;54.02;95851.06;10533876;28;20423;-46
2022/11/16 02:32:40;;;;;;;2.60;2.17;;;;;;;19.70;54.09;95836.75;10529195;28;20040;-47
2022/11/16 02:38:13;;;;;;;3.17;2.15;;;;;;;19.69;54.05;95832.47;10511908;28;20044;-45
2022/11/16 02:43:56;;;;;;;2.40;2.20;;;;;;;19.69;54.04;95829.00;10497776;28;20056;-45
2022/11/16 02:49:18;;;;;;;2.30;2.10;;;;;;;19.67;54.18;95825.88;10491092;28;20089;-46
2022/11/16 02:54:37;;;;;;;2.65;2.10;;;;;;;19.66;54.11;95818.88;10490420;28;20049;-47
2022/11/16 02:59:58;;;;;;;2.70;2.20;;;;;;;19.65;53.99;95807.28;10510191;28;20040;-45
2022/11/16 03:05:40;;;;;;;2.08;1.88;;;;;;;19.63;54.03;95804.16;10525604;28;20044;-46
2022/11/16 03:16:48;;;;;;;2.15;1.95;;;;;;;19.61;54.10;95800.25;10481081;28;20059;-47
2022/11/16 03:22:14;;;;;;;2.30;2.10;;;;;;;19.60;54.05;95782.44;10504180;28;20049;-45
2022/11/16 03:27:38;;;;;;;2.33;1.95;;;;;;;19.59;54.09;95786.28;10516204;28;20048;-44
2022/11/16 03:33:04;;;;;;;2.33;2.13;;;;;;;19.58;53.92;95790.13;10500892;28;20052;-45
2022/11/16 03:38:25;;;;;;;2.30;2.10;;;;;;;19.56;54.05;95782.34;10487648;28;20037;-44
2022/11/16 03:43:46;;;;;;;2.40;2.20;;;;;;;19.54;54.01;95780.03;10490238;28;20105;-47
2022/11/16 03:49:06;;;;;;;2.03;1.83;;;;;;;19.54;54.13;95763.00;10476976;28;20075;-46
2022/11/16 03:54:28;;;;;;;2.88;1.83;;;;;;;19.52;54.10;95760.69;10476652;28;20060;-48
2022/11/16 03:59:48;;;;;;;2.17;1.98;;;;;;;19.52;54.03;95754.47;10520019;28;20044;-47
2022/11/16 04:39:10;;;;;;;1.95;1.83;;;;;;;19.43;54.14;95743.06;10489064;28;20404;-48
2022/11/16 04:50:13;;;;;;;1.90;1.80;;;;;;;19.41;53.98;95726.44;10512995;28;20052;-47
2022/11/16 04:55:34;;;;;;;2.03;1.83;;;;;;;19.39;54.16;95721.38;10499712;28;20055;-47
2022/11/16 05:00:55;;;;;;;3.60;1.67;;;;;;;19.38;54.05;95722.50;10488429;28;20174;-45
2022/11/16 05:06:15;;;;;;;1.67;1.58;;;;;;;19.38;54.03;95722.50;10492236;28;20400;-48
2022/11/16 05:11:35;;;;;;;3.15;2.05;;;;;;;19.36;54.08;95716.66;10509094;28;20121;-47
2022/11/16 05:16:56;;;;;;;1.90;1.80;;;;;;;19.35;54.47;95715.13;10520963;28;20051;-47
2022/11/16 05:22:15;;;;;;;1.90;1.80;;;;;;;19.35;54.76;95721.28;10503891;28;20055;-47
2022/11/16 05:27:36;;;;;;;2.30;2.10;;;;;;;19.35;54.89;95709.72;10521834;28;20079;-45
2022/11/16 05:32:56;;;;;;;3.72;1.80;;;;;;;19.33;54.34;95711.97;10508045;28;20047;-46
2022/11/16 05:38:18;;;;;;;2.45;1.80;;;;;;;19.33;54.21;95714.69;10490744;28;20513;-46
2022/11/16 05:43:41;;;;;;;2.20;1.60;;;;;;;19.32;54.33;95713.88;10470275;28;20067;-44
2022/11/16 05:49:10;;;;;;;2.10;1.73;;;;;;;19.31;54.42;95716.94;10503859;28;20040;-48
2022/11/16 05:54:30;;;;;;;1.73;1.63;;;;;;;19.31;54.35;95716.94;10508276;28;20047;-47
2022/11/16 05:59:50;;;;;;;2.03;1.70;;;;;;;19.32;54.55;95719.28;10505069;28;20066;-48
2022/11/16 06:05:09;;;;;;;3.47;1.98;;;;;;;19.33;54.47;95720.06;10499770;28;20060;-48
2022/11/16 06:10:29;;;;;;;8.90;2.83;;;;;;;19.32;54.39;95732.00;10505181;28;20480;-47
2022/11/16 06:15:50;;;;;;;7.50;2.72;;;;;;;19.33;54.45;95736.28;10501578;28;20052;-48
2022/11/16 06:21:11;;;;;;;10.45;3.22;;;;;;;19.33;54.41;95737.06;10505952;28;20040;-47
2022/11/16 06:26:30;;;;;;;8.60;3.30;;;;;;;19.34;54.35;95740.53;10497826;28;20056;-45
2022/11/16 06:31:50;;;;;;;9.23;3.45;;;;;;;19.35;54.39;95748.28;10523928;28;20037;-46
2022/11/16 06:37:09;;;;;;;9.23;3.30;;;;;;;19.35;54.51;95729.38;10496685;28;20392;-45
2022/11/16 06:42:29;;;;;;;6.95;3.20;;;;;;;19.37;54.41;95729.06;10530155;28;20400;-49
2022/11/16 06:47:50;;;;;;;9.48;3.53;;;;;;;19.39;54.40;95742.22;10492336;28;20106;-46
2022/11/16 06:53:10;;;;;;;6.75;3.17;;;;;;;19.38;54.53;95730.59;10499544;28;20049;-47
2022/11/16 06:58:30;;;;;;;9.95;3.58;;;;;;;19.39;54.53;95734.09;10511441;28;20403;-45
2022/11/16 07:03:50;;;;;;;6.93;3.30;;;;;;;19.41;54.58;95732.63;10522471;28;20105;-48
2022/11/16 07:09:10;;;;;;;8.07;3.15;;;;;;;19.41;54.57;95734.53;10530715;28;20068;-45
2022/11/16 07:14:30;;;;;;;9.15;3.45;;;;;;;19.41;54.54;95732.63;10521979;28;20110;-44
2022/11/16 07:19:50;;;;;;;7.53;3.13;;;;;;;19.43;54.66;95733.06;10539121;28;20044;-46
2022/11/16 07:25:10;;;;;;;5.43;3.28;;;;;;;19.45;54.18;95724.59;10524283;28;20052;-45
2022/11/16 07:30:29;;;;;;;7.40;3.30;;;;;;;19.44;54.18;95721.09;10473733;28;20052;-49
2022/11/16 07:36:05;;;;;;;7.68;3.20;;;;;;;19.47;54.08;95731.22;10471369;28;21083;-45
2022/11/16 07:41:25;;;;;;;6.65;3.20;;;;;;;19.48;53.94;95738.19;10484237;28;20052;-47
2022/11/16 07:47:01;;;;;;;6.32;3.03;;;;;;;19.50;53.92;95740.53;10507240;28;20056;-44
2022/11/16 07:52:23;;;;;;;5.97;2.97;;;;;;;19.50;53.90;95740.53;10527144;28;20047;-46
2022/11/16 07:58:03;;;;;;;7.63;2.90;;;;;;;19.52;53.90;95739.06;10531981;28;20078;-44
2022/11/16 08:03:22;;;;;;;6.40;3.40;;;;;;;19.53;54.00;95724.41;10514968;28;20052;-44
2022/11/16 08:08:43;;;;;;;8.45;2.88;;;;;;;19.54;53.77;95731.41;10492424;28;20052;-46
2022/11/16 08:14:03;;;;;;;6.10;3.45;;;;;;;19.56;53.68;95728.31;10516500;28;20040;-46
2022/11/16 08:19:23;;;;;;;5.70;2.88;;;;;;;19.58;53.84;95730.69;10500238;28;20045;-48
2022/11/16 08:24:43;;;;;;;6.03;2.83;;;;;;;19.58;53.91;95733.38;10518552;28;20055;-47
2022/11/16 08:30:08;;;;;;;5.45;3.08;;;;;;;19.61;53.84;95740.81;10530337;28;20495;-48
2022/11/16 08:35:28;;;;;;;5.47;2.58;;;;;;;19.62;53.85;95737.75;10506009;28;20313;-45
2022/11/16 08:40:49;;;;;;;5.38;2.80;;;;;;;19.62;53.74;95736.94;10536516;28;20046;-46
2022/11/16 08:46:10;;;;;;;4.70;2.67;;;;;;;19.64;53.70;95731.97;10501643;28;20055;-47
2022/11/16 08:51:32;;;;;;;5.22;2.47;;;;;;;19.65;53.64;95728.94;10496527;28;20059;-46
2022/11/16 08:56:58;;;;;;;3.53;2.42;;;;;;;19.66;53.69;95729.72;10531294;28;20385;-48
2022/11/16 09:02:24;;;;;;;3.90;2.50;;;;;;;19.67;53.61;95729.38;10471934;28;20045;-48
2022/11/16 09:07:44;;;;;;;3.63;2.50;;;;;;;19.68;53.81;95711.22;10525589;28;20063;-48
2022/11/16 09:13:04;;;;;;;5.20;2.47;;;;;;;19.70;53.66;95719.78;10491809;28;20044;-46
2022/11/16 09:18:23;;;;;;;4.00;2.50;;;;;;;19.71;53.61;95718.66;10515456;28;20063;-44
2022/11/16 09:23:43;;;;;;;6.68;2.58;;;;;;;19.73;53.52;95713.69;10508268;28;20040;-44
2022/11/16 09:29:03;;;;;;;3.92;2.33;;;;;;;19.75;53.79;95724.94;10503554;28;20055;-44
2022/11/16 09:34:24;;;;;;;4.90;2.60;;;;;;;19.74;53.64;95718.75;10517484;28;20056;-46
2022/11/16 09:39:43;;;;;;;3.20;2.38;;;;;;;19.75;53.75;95714.91;10520716;28;20045;-48
2022/11/16 09:45:15;;;;;;;3.88;2.47;;;;;;;19.76;53.76;95715.72;10512456;28;20052;-46
2022/11/16 09:50:42;;;;;;;3.33;2.20;;;;;;;19.77;53.57;95711.88;10505061;28;20044;-44
2022/11/16 09:56:05;;;;;;;4.15;2.47;;;;;;;19.80;53.77;95721.19;10512233;28;20388;-45
2022/11/16 10:01:26;;;;;;;5.18;2.60;;;;;;;19.81;53.73;95731.63;10518046;28;20053;-47
2022/11/16 10:06:54;;;;;;;3.40;2.45;;;;;;;19.81;53.70;95718.13;10504308;28;20056;-48
2022/11/16 10:12:29;;;;;;;3.58;2.65;;;;;;;19.82;53.67;95719.72;10504932;28;20048;-49
2022/11/16 10:18:10;;;;;;;3.83;2.42;;;;;;;19.83;53.67;95715.84;10543524;28;20411;-46
2022/11/16 10:23:48;;;;;;;4.15;2.72;;;;;;;19.85;53.74;95712.81;10531859;28;20101;-45
2022/11/16 10:29:32;;;;;;;3.15;2.20;;;;;;;19.87;53.36;95705.13;10543054;28;20048;-44
2022/11/16 10:34:54;;;;;;;3.30;2.28;;;;;;;19.88;53.35;95691.28;10529577;28;20056;-46
2022/11/16 10:40:50;;;;;;;3.10;2.17;;;;;;;19.87;53.38;95678.09;10523638;28;20510;-47
2022/11/16 10:46:23;;;;;;;2.40;2.20;;;;;;;19.88;53.02;95666.94;10503818;28;20048;-45
2022/11/16 10:51:43;;;;;;;3.72;2.80;;;;;;;19.90;53.25;95661.97;10533896;28;20044;-43
2022/11/16 10:57:07;;;;;;;3.03;2.40;;;;;;;19.90;53.23;95659.25;10534128;28;20055;-44
2022/11/16 11:02:35;;;;;;;2.72;2.20;;;;;;;19.92;53.17;95657.00;10507989;28;20055;-45
2022/11/16 11:08:08;;;;;;;5.30;3.72;;;;;;;19.92;51.79;95662.41;10511332;28;20415;-44
2022/11/16 11:13:28;;;;;;;7.00;5.80;;;;;;;19.75;46.21;95650.06;10510121;28;20510;-48
2022/11/16 11:18:50;;;;;;;4.05;2.92;;;;;;;19.73;48.83;95643.44;10529874;28;20052;-46
2022/11/16 11:24:16;;;;;;;3.85;3.38;;;;;;;19.81;50.65;95638.97;10525900;28;20048;-47
2022/11/16 11:29:39;;;;;;;4.00;3.42;;;;;;;19.87;50.20;95634.84;10534150;28;20048;-47
2022/11/16 11:34:59;;;;;;;4.80;3.20;;;;;;;19.88;50.22;95633.75;10503965;28;20106;-47
2022/11/16 11:40:19;;;;;;;3.88;3.10;;;;;;;19.90;50.27;95636.88;10501228;28;20048;-46
2022/11/16 11:45:53;;;;;;;4.38;3.15;;;;;;;19.90;50.20;95634.94;10531388;28;20129;-46
2022/11/16 11:51:20;;;;;;;3.15;2.75;;;;;;;19.91;50.47;95631.09;10466909;28;20056;-46
2022/11/16 11:56:39;;;;;;;3.28;2.83;;;;;;;19.94;50.49;95619.56;10508533;28;20064;-49
2022/11/16 12:02:05;;;;;;;3.08;2.78;;;;;;;19.94;50.51;95616.88;10542223;28;20044;-44
2022/11/16 12:07:54;;;;;;;3.17;2.72;;;;;;;19.95;50.54;95615.75;10537473;28;20044;-45
2022/11/16 12:13:38;;;;;;;2.92;2.70;;;;;;;19.96;50.71;95608.41;10532944;28;20500;-46
2022/11/16 12:19:10;;;;;;;3.47;3.05;;;;;;;19.98;50.92;95608.84;10487187;28;20556;-44
2022/11/16 12:24:51;;;;;;;3.88;3.00;;;;;;;19.98;50.91;95608.84;10495963;28;20043;-46
2022/11/16 12:30:18;;;;;;;3.35;2.75;;;;;;;19.98;51.10;95603.44;10512813;28;20056;-46
2022/11/16 12:35:50;;;;;;;3.20;2.88;;;;;;;20.00;51.08;95594.97;10497467;28;20087;-46
2022/11/16 12:41:35;;;;;;;2.97;2.70;;;;;;;20.02;51.03;95598.09;10480894;28;20048;-48
2022/11/16 12:47:00;;;;;;;2.75;2.50;;;;;;;20.02;51.32;95590.78;10495455;28;20052;-45
2022/11/16 12:52:45;;;;;;;2.70;2.50;;;;;;;20.01;51.39;95594.59;10530805;28;20135;-44
2022/11/16 12:58:22;;;;;;;3.35;2.88;;;;;;;20.03;51.49;95597.75;10519757;28;20048;-44
2022/11/16 13:03:53;;;;;;;3.03;2.72;;;;;;;20.04;51.54;95601.22;10537875;28;20056;-47
2022/11/16 13:09:17;;;;;;;2.97;2.70;;;;;;;20.05;51.51;95597.38;10498765;28;20044;-48
2022/11/16 13:14:39;;;;;;;3.28;2.92;;;;;;;20.06;51.50;95596.25;10502837;28;20056;-44
2022/11/16 13:20:19;;;;;;;2.58;2.33;;;;;;;20.06;51.60;95594.31;10502347;28;20063;-45
2022/11/16 13:25:49;;;;;;;2.78;2.58;;;;;;;20.07;51.68;95593.19;10481931;28;20056;-45
2022/11/16 13:31:51;;;;;;;2.95;2.65;;;;;;;20.08;51.61;95591.28;10529979;28;20055;-44
2022/11/16 13:37:36;;;;;;;2.83;2.40;;;;;;;20.09;51.78;95590.13;10470800;28;20061;-46
2022/11/16 13:42:58;;;;;;;2.70;2.50;;;;;;;20.09;51.81;95590.13;10510750;28;20048;-48
2022/11/16 13:48:23;;;;;;;2.90;2.60;;;;;;;20.10;51.84;95584.34;10525169;28;20117;-49
2022/11/16 13:53:47;;;;;;;2.60;2.40;;;;;;;20.10;51.81;95576.25;10503537;28;20063;-46
2022/11/16 13:59:13;;;;;;;2.63;2.40;;;;;;;20.10;51.88;95576.25;10494622;28;20049;-44
2022/11/16 14:04:41;;;;;;;2.38;2.17;;;;;;;20.11;51.82;95575.13;10492607;28;20105;-48
2022/11/16 14:10:04;;;;;;;2.97;2.35;;;;;;;20.12;51.82;95581.31;10515161;28;20048;-44
2022/11/16 14:15:43;;;;;;;2.80;2.50;;;;;;;20.12;51.85;95575.91;10504771;28;20052;-45
2022/11/16 14:21:06;;;;;;;;;;;;;;;20.13;51.70;95574.75;10504096;28;20105;-44
2022/11/16 14:26:31;;;;;;;2.40;2.20;;;;;;;20.13;51.86;95569.34;10535026;28;19920;-48
2022/11/16 14:31:53;;;;;;;2.45;2.25;;;;;;;20.14;51.92;95565.50;10539769;28;20055;-44
2022/11/16 14:37:27;;;;;;;4.85;4.35;;;;;;;20.08;47.37;95561.53;10490356;28;20428;-44
2022/11/16 14:43:05;;;;;;;3.60;3.13;;;;;;;20.08;50.22;95551.50;10482448;28;20040;-44
2022/11/16 14:48:26;;;;;;;3.22;2.67;;;;;;;20.11;50.51;95555.38;10451503;28;20063;-48
2022/11/16 14:53:53;;;;;;;3.45;2.70;;;;;;;20.12;50.70;95551.56;10460378;28;20070;-46
2022/11/16 14:59:15;;;;;;;4.57;2.83;;;;;;;20.14;51.01;95552.75;10468728;28;20404;-43
2022/11/16 15:04:37;;;;;;;3.45;2.40;;;;;;;20.17;51.01;95545.88;10513302;28;20047;-44
2022/11/16 15:09:58;;;;;;;2.60;2.40;;;;;;;20.18;51.29;95542.00;10473754;28;20048;-44
2022/11/16 15:15:22;;;;;;;4.35;2.60;;;;;;;20.20;51.39;95539.72;10474277;28;20493;-46
2022/11/16 15:20:51;;;;;;;3.47;2.40;;;;;;;20.21;51.46;95530.50;10497158;28;20049;-44
2022/11/16 15:26:19;;;;;;;3.25;2.60;;;;;;;20.22;51.51;95533.97;10459680;28;20045;-43
2022/11/16 15:31:41;;;;;;;3.08;2.78;;;;;;;20.25;51.45;95530.56;10464710;28;20048;-43
2022/11/16 15:37:01;;;;;;;3.88;2.80;;;;;;;20.25;51.02;95523.22;10498148;28;20110;-44
2022/11/16 15:42:22;;;;;;;3.67;2.97;;;;;;;20.25;51.36;95527.84;10450244;28;20052;-45
2022/11/16 15:47:45;;;;;;;6.40;2.95;;;;;;;20.26;51.42;95524.00;10538394;28;20068;-45
2022/11/16 15:53:32;;;;;;;6.13;2.67;;;;;;;20.26;51.62;95522.06;10806765;22;20149;31
2022/11/16 15:59:21;;;;;;;3.35;2.65;;;;;;;20.27;51.79;95517.47;10372054;28;20491;-59
2022/11/16 16:04:42;;;;;;;5.13;2.47;;;;;;;20.27;51.98;95514.75;10359905;28;20124;-60
2022/11/16 16:10:18;;;;;;;4.80;2.40;;;;;;;20.27;52.08;95510.13;10374297;28;20288;-60
2022/11/16 16:15:39;;;;;;;3.63;2.40;;;;;;;20.28;52.10;95502.78;10362781;28;20057;-59
2022/11/16 16:21:01;;;;;;;5.30;2.55;;;;;;;20.30;52.18;95514.78;10373663;28;20504;-60
2022/11/16 16:26:21;;;;;;;2.70;2.50;;;;;;;20.30;52.18;95506.69;10379291;28;20050;-61
2022/11/16 16:31:43;;;;;;;2.88;2.28;;;;;;;20.30;52.33;95506.69;10373414;28;20049;-59
2022/11/16 16:37:03;;;;;;;3.47;2.70;;;;;;;20.31;52.13;95513.66;10373431;28;20054;-57
2022/11/16 16:42:22;;;;;;;4.88;2.70;;;;;;;20.31;52.07;95502.84;10362028;28;20041;-61
2022/11/16 16:47:42;;;;;;;2.90;2.40;;;;;;;20.31;52.33;95505.56;10372161;28;20412;-58
2022/11/16 16:53:02;;;;;;;2.90;2.53;;;;;;;20.33;52.36;95505.97;10356502;28;20046;-59
2022/11/16 16:58:22;;;;;;;3.58;2.50;;;;;;;20.33;52.31;95510.63;10328923;28;20066;-58
2022/11/16 17:03:41;;;;;;;4.10;2.38;;;;;;;20.34;52.41;95507.53;10331361;28;20437;-58
2022/11/16 17:09:01;;;;;;;4.10;2.60;;;;;;;20.35;52.27;95500.22;10317427;28;20058;-57
2022/11/16 17:14:23;;;;;;;3.03;2.72;;;;;;;20.35;52.24;95494.81;10317312;28;20061;-59
2022/11/16 17:19:42;;;;;;;4.55;2.53;;;;;;;20.37;52.30;95497.16;10332445;28;20042;-56
2022/11/16 17:25:04;;;;;;;3.72;2.80;;;;;;;20.37;52.38;95494.44;10331351;28;20050;-57
2022/11/16 17:30:24;;;;;;;3.72;3.05;;;;;;;20.37;52.38;95494.44;10331455;28;20054;-59
2022/11/16 17:35:54;;;;;;;4.90;2.67;;;;;;;20.38;52.44;95490.59;10344258;28;20238;-58
2022/11/16 17:41:20;;;;;;;5.38;2.80;;;;;;;20.39;52.67;95489.47;10326054;28;20203;-59
2022/11/16 17:46:40;;;;;;;6.70;2.83;;;;;;;20.39;52.64;95482.13;10331154;28;20058;-58
2022/11/16 17:52:00;;;;;;;4.93;3.30;;;;;;;20.39;52.77;95487.53;10330280;28;20505;-60
2022/11/16 17:57:20;;;;;;;7.75;5.72;;;;;;;20.35;49.46;95487.47;10326524;28;20068;-58
2022/11/16 18:02:39;;;;;;;8.40;4.00;;;;;;;20.37;51.71;95491.75;10356382;28;20057;-58
2022/11/16 18:07:59;;;;;;;5.57;4.10;;;;;;;20.38;51.95;95487.88;10332975;28;20054;-58
2022/11/16 18:13:19;;;;;;;8.50;3.88;;;;;;;20.38;52.28;95479.78;10331833;28;20049;-58
2022/11/16 18:18:39;;;;;;;7.47;3.78;;;;;;;20.39;52.44;95475.94;10338205;28;20108;-57
2022/11/16 18:23:59;;;;;;;5.95;3.83;;;;;;;20.39;52.73;95487.53;10323503;28;20042;-57
2022/11/16 18:29:19;;;;;;;5.25;3.38;;;;;;;20.41;52.94;95489.88;10337894;28;20068;-58
2022/11/16 18:34:39;;;;;;;4.70;3.33;;;;;;;20.43;53.57;95487.59;10338686;28;20054;-57
2022/11/16 18:39:58;;;;;;;10.27;4.32;;;;;;;20.43;53.99;95477.53;10371387;28;20057;-58
2022/11/16 18:45:18;;;;;;;5.85;3.78;;;;;;;20.44;54.13;95470.97;10376084;28;20476;-59
2022/11/16 18:50:38;;;;;;;4.70;3.67;;;;;;;20.46;54.34;95473.31;10349241;28;20046;-59
2022/11/16 18:55:58;;;;;;;7.22;3.72;;;;;;;20.45;54.29;95477.19;10367302;28;20062;-60
2022/11/16 19:01:21;;;;;;;8.75;3.47;;;;;;;20.45;54.49;95464.44;10362655;28;20058;-58
2022/11/16 19:06:41;;;;;;;6.35;3.58;;;;;;;20.45;54.62;95466.38;10363589;28;20057;-59
2022/11/16 19:12:00;;;;;;;8.02;3.53;;;;;;;20.45;54.60;95463.66;10376114;28;20511;-59
2022/11/16 19:17:23;;;;;;;6.40;3.17;;;;;;;20.45;54.77;95450.13;10376673;28;20428;-58
2022/11/16 19:22:43;;;;;;;6.72;3.20;;;;;;;20.45;54.83;95458.25;10389572;28;20510;-59
2022/11/16 19:28:06;;;;;;;5.57;3.10;;;;;;;20.44;54.93;95462.09;10364592;28;20382;-59
2022/11/16 19:33:25;;;;;;;4.85;3.15;;;;;;;20.43;55.12;95461.31;10375898;28;20050;-58
2022/11/16 19:38:46;;;;;;;5.85;3.38;;;;;;;20.43;54.79;95444.31;10372302;28;20050;-57
2022/11/16 19:44:06;;;;;;;5.93;3.13;;;;;;;20.43;54.82;95449.72;10363894;28;20413;-55
2022/11/16 19:49:26;;;;;;;3.85;2.65;;;;;;;20.40;54.75;95451.22;10375559;28;20053;-58
2022/11/16 19:54:46;;;;;;;4.53;3.15;;;;;;;20.41;54.81;95462.81;10374486;28;20070;-58
2022/11/16 20:00:06;;;;;;;6.30;3.10;;;;;;;20.40;55.08;95453.91;10372657;28;20049;-57
2022/11/16 20:05:26;;;;;;;3.95;3.20;;;;;;;20.40;54.74;95450.44;10343577;28;20061;-56
2022/11/16 20:10:46;;;;;;;4.53;3.15;;;;;;;20.39;54.76;95452.38;10347387;28;20050;-58
2022/11/16 20:16:06;;;;;;;4.00;2.80;;;;;;;20.37;55.01;95454.66;10358386;28;20050;-57
2022/11/16 20:21:34;;;;;;;4.53;2.83;;;;;;;20.37;55.04;95445.75;10340482;28;20042;-57
2022/11/16 20:26:54;;;;;;;4.50;2.70;;;;;;;20.35;54.96;95449.59;10334560;28;20062;-58
2022/11/16 20:32:13;;;;;;;4.45;2.90;;;;;;;20.35;54.96;95443.41;10335084;28;20054;-59
2022/11/16 20:37:32;;;;;;;3.28;2.88;;;;;;;20.34;55.13;95439.13;10323771;28;20054;-58
2022/11/16 20:42:56;;;;;;;4.22;2.90;;;;;;;20.33;55.18;95441.06;10333804;28;20054;-58
2022/11/16 20:48:16;;;;;;;3.47;2.83;;;;;;;20.33;55.16;95432.19;10333273;28;20057;-59
2022/11/16 20:53:35;;;;;;;4.45;2.72;;;;;;;20.32;55.19;95427.91;10332746;28;20046;-58
2022/11/16 20:58:56;;;;;;;3.53;2.90;;;;;;;20.31;55.14;95432.53;10372751;28;20453;-59
2022/11/16 21:04:16;;;;;;;4.40;2.67;;;;;;;20.31;55.31;95426.34;10372357;28;20112;-58
2022/11/16 21:10:17;;;;;;;4.60;3.10;;;;;;;20.29;55.21;95424.00;10371901;28;20054;-54
2022/11/16 21:15:16;;;;;;;3.33;2.40;;;;;;;20.28;55.10;95416.25;10371965;28;20049;-60
2022/11/16 21:20:37;;;;;;;4.57;2.63;;;;;;;20.27;55.24;95412.78;10385218;28;20044;-57
2022/11/16 21:26:08;;;;;;;4.65;2.45;;;;;;;20.26;55.17;95419.31;10385182;28;20049;-58
2022/11/16 21:31:30;;;;;;;4.47;2.60;;;;;;;20.24;55.28;95421.59;10349067;28;20053;-58
2022/11/16 21:36:51;;;;;;;5.50;2.67;;;;;;;20.24;55.19;95442.44;10384922;28;20045;-60
2022/11/16 21:42:10;;;;;;;4.65;2.40;;;;;;;20.23;55.30;95443.59;10357055;28;20054;-58
2022/11/16 21:47:30;;;;;;;3.03;2.45;;;;;;;20.22;55.30;95432.00;10371207;28;20057;-58
2022/11/16 21:52:49;;;;;;;4.65;3.60;;;;;;;20.20;54.36;95433.50;10392966;28;20053;-59
2022/11/16 21:58:08;;;;;;;3.42;2.53;;;;;;;20.21;54.77;95437.75;10381037;28;20057;-58
2022/11/16 22:03:29;;;;;;;3.80;2.63;;;;;;;20.15;54.85;95432.66;10379126;28;20050;-56
2022/11/16 22:08:49;;;;;;;5.20;2.78;;;;;;;20.16;54.85;95436.13;10379273;28;20623;-58
2022/11/16 22:14:11;;;;;;;3.47;2.35;;;;;;;20.14;54.91;95435.72;10391420;28;20045;-59
2022/11/16 22:19:30;;;;;;;4.78;2.42;;;;;;;20.11;54.84;95434.53;10377521;28;20398;-58
2022/11/16 22:24:49;;;;;;;3.75;2.42;;;;;;;20.10;54.81;95422.13;10391477;28;20045;-58
2022/11/16 22:30:09;;;;;;;3.45;2.25;;;;;;;20.10;54.91;95427.53;10377344;28;20537;-59
2022/11/16 22:35:29;;;;;;;4.43;2.47;;;;;;;20.09;54.87;95438.72;10377769;28;20083;-58
2022/11/16 22:40:55;;;;;;;3.38;2.35;;;;;;;20.07;54.91;95430.19;10377806;28;20050;-58
2022/11/16 22:46:15;;;;;;;3.60;2.50;;;;;;;20.07;54.92;95427.47;10377599;28;20076;-58
2022/11/16 22:51:35;;;;;;;2.45;2.25;;;;;;;20.06;54.95;95434.81;10390585;28;20049;-58
2022/11/16 22:56:55;;;;;;;3.63;2.40;;;;;;;20.05;54.91;95440.59;10364545;28;20062;-59
2022/11/16 23:02:14;;;;;;;2.83;2.17;;;;;;;20.02;54.93;95417.00;10375264;28;20058;-58
2022/11/16 23:07:34;;;;;;;3.20;2.28;;;;;;;20.01;54.94;95418.13;10376425;28;20053;-58
2022/11/16 23:18:32;;;;;;;4.72;2.50;;;;;;;19.98;54.90;95430.44;10381315;28;20042;-58
2022/11/16 23:29:29;;;;;;;2.97;2.10;;;;;;;19.97;54.91;95411.88;10388853;28;20052;-58
2022/11/16 23:34:49;;;;;;;2.80;2.25;;;;;;;19.94;54.89;95416.84;10388409;28;20041;-58
2022/11/16 23:40:09;;;;;;;3.17;2.40;;;;;;;19.94;54.87;95416.84;10374897;28;20439;-58
2022/11/16 23:45:29;;;;;;;2.97;2.17;;;;;;;19.93;54.94;95401.78;10387668;28;20053;-59
2022/11/16 23:50:48;;;;;;;2.50;2.30;;;;;;;19.91;54.90;95393.25;10388100;28;20409;-57
2022/11/16 23:56:07;;;;;;;2.90;2.20;;;;;;;19.90;54.73;95380.88;10381802;28;20405;-57
